Sonora Municipal Airport
KSOA : now visible

Airfield :











YOU CAN JOIN US ON...

 
LOGIN :

Register | Disclaimer

   EN    FR    IT 

 









Legend :    VFR   Marginal VFR   IFR   Intensive IFR   Very Intensive IFR
Visi :
Ceiling :
>= 8 km
>= 3000ft
5 to 8 km
1000 to 3000 ft
1500m to 5 km
500 to 1000 ft
800 to 1500m
200 to 500 ft
< 800m
< 200 ft
Symbols :   Thunderstorms  Fog  Heavy snow  Heavy precipitations  Wind > 20 kt







- Airport Elevation : 2140 ft


KSOA - Sonora Municipal

CURRENT METAR :
  • 231355Z AUTO 19008KT 9SM BKN014 BKN019 17/14 A3009 RMK AO2

EXPIRED METARs :
  • 231335Z AUTO 20007KT 10SM BKN014 BKN019 17/14 A3008 RMK AO2
  • 231315Z AUTO 19011KT 10SM OVC014 17/14 A3007 RMK AO2
  • 231255Z AUTO 19010G15KT 10SM OVC013 17/14 A3006 RMK AO2
  • 231235Z AUTO 18008KT 10SM OVC014 17/14 A3006 RMK AO2
  • 231215Z AUTO 18008KT 10SM OVC013 17/14 A3006 RMK AO2
  • 231155Z AUTO 18007KT 10SM BKN014 OVC022 17/14 A3006 RMK AO2
  • 231135Z AUTO 18008G14KT 10SM BKN016 BKN022 17/14 A3005 RMK AO2
  • 231115Z AUTO 18009KT 10SM BKN017 BKN023 17/14 A3005 RMK AO2

TAF KSOA
Valid from the 23 at 12:00 until the 24 at 12:00 UTC


231132Z 2312/2412 19010KT P6SM OVC015
FM231900 20010KT P6SM SCT040
FM232000 18008KT P6SM SCT250
FM240600 18005KT P6SM OVC015
KZHU FIR / North America



MET'MAP, your aeronautical weather chart ! - Copyright ORBIFLY December 2007 - Disclaimer

ORBIFLY MET'MAP TEAM :

Programming & Development : Alexandra Zaïnal
Concept & Development : Baudouin d'Aumeries
Co-Development & Prog : Marc-Olivier Méhu
Technical & hardware support : Manuel Goepfert

Contact : metmap@orbifly.com




SOURCES & CREDITS :

   NOAA       Earth
Advisory